sensor_id;sensor_type;location;lat;lon;timestamp;P1;durP1;ratioP1;P2;durP2;ratioP2
47715;SDS011;33476;50.984;3.538;2023-04-15T00:00:35;2.38;;;1.17;;
47715;SDS011;33476;50.984;3.538;2023-04-15T00:03:01;3.80;;;1.00;;
47715;SDS011;33476;50.984;3.538;2023-04-15T00:05:28;1.85;;;1.17;;
47715;SDS011;33476;50.984;3.538;2023-04-15T00:07:54;2.95;;;0.90;;
47715;SDS011;33476;50.984;3.538;2023-04-15T00:10:19;2.90;;;1.10;;
47715;SDS011;33476;50.984;3.538;2023-04-15T00:12:44;2.42;;;1.10;;
47715;SDS011;33476;50.984;3.538;2023-04-15T00:15:10;1.63;;;1.00;;
47715;SDS011;33476;50.984;3.538;2023-04-15T00:17:36;2.08;;;0.88;;
47715;SDS011;33476;50.984;3.538;2023-04-15T00:20:03;2.13;;;1.00;;
47715;SDS011;33476;50.984;3.538;2023-04-15T00:22:30;2.97;;;1.10;;
47715;SDS011;33476;50.984;3.538;2023-04-15T00:24:56;1.50;;;1.02;;
47715;SDS011;33476;50.984;3.538;2023-04-15T00:27:22;1.58;;;0.98;;
47715;SDS011;33476;50.984;3.538;2023-04-15T00:29:47;3.28;;;1.20;;
47715;SDS011;33476;50.984;3.538;2023-04-15T00:32:13;1.77;;;0.93;;
47715;SDS011;33476;50.984;3.538;2023-04-15T00:34:38;1.10;;;0.88;;
47715;SDS011;33476;50.984;3.538;2023-04-15T00:37:03;1.30;;;1.00;;
47715;SDS011;33476;50.984;3.538;2023-04-15T00:39:29;2.20;;;1.00;;
47715;SDS011;33476;50.984;3.538;2023-04-15T00:41:54;1.13;;;0.98;;
47715;SDS011;33476;50.984;3.538;2023-04-15T00:44:21;2.90;;;0.98;;
47715;SDS011;33476;50.984;3.538;2023-04-15T00:46:47;3.13;;;1.13;;
47715;SDS011;33476;50.984;3.538;2023-04-15T00:49:15;1.63;;;1.00;;
47715;SDS011;33476;50.984;3.538;2023-04-15T00:51:42;2.42;;;1.08;;
47715;SDS011;33476;50.984;3.538;2023-04-15T00:54:07;1.48;;;0.85;;
47715;SDS011;33476;50.984;3.538;2023-04-15T00:56:34;1.73;;;1.05;;
47715;SDS011;33476;50.984;3.538;2023-04-15T00:59:00;2.80;;;1.38;;
47715;SDS011;33476;50.984;3.538;2023-04-15T01:01:26;1.95;;;1.00;;
47715;SDS011;33476;50.984;3.538;2023-04-15T01:03:54;1.98;;;0.95;;
47715;SDS011;33476;50.984;3.538;2023-04-15T01:06:20;4.90;;;1.30;;
47715;SDS011;33476;50.984;3.538;2023-04-15T01:08:46;2.38;;;0.98;;
47715;SDS011;33476;50.984;3.538;2023-04-15T01:11:11;1.80;;;1.00;;
47715;SDS011;33476;50.984;3.538;2023-04-15T01:13:37;2.45;;;0.90;;
47715;SDS011;33476;50.984;3.538;2023-04-15T01:16:03;1.70;;;1.05;;
47715;SDS011;33476;50.984;3.538;2023-04-15T01:18:29;1.73;;;1.05;;
47715;SDS011;33476;50.984;3.538;2023-04-15T01:20:55;1.73;;;1.08;;
47715;SDS011;33476;50.984;3.538;2023-04-15T01:23:21;2.53;;;1.13;;
47715;SDS011;33476;50.984;3.538;2023-04-15T01:25:50;2.83;;;1.27;;
47715;SDS011;33476;50.984;3.538;2023-04-15T01:28:17;1.90;;;0.93;;
47715;SDS011;33476;50.984;3.538;2023-04-15T01:30:42;1.45;;;1.17;;
47715;SDS011;33476;50.984;3.538;2023-04-15T01:33:08;2.22;;;1.35;;
47715;SDS011;33476;50.984;3.538;2023-04-15T01:35:34;2.35;;;1.10;;
47715;SDS011;33476;50.984;3.538;2023-04-15T01:38:02;3.88;;;0.95;;
47715;SDS011;33476;50.984;3.538;2023-04-15T01:40:31;1.70;;;1.02;;
47715;SDS011;33476;50.984;3.538;2023-04-15T01:42:57;3.22;;;1.40;;
47715;SDS011;33476;50.984;3.538;2023-04-15T01:45:23;2.35;;;1.25;;
47715;SDS011;33476;50.984;3.538;2023-04-15T01:47:48;2.17;;;1.08;;
47715;SDS011;33476;50.984;3.538;2023-04-15T01:50:14;1.67;;;1.20;;
47715;SDS011;33476;50.984;3.538;2023-04-15T01:52:40;1.83;;;1.27;;
47715;SDS011;33476;50.984;3.538;2023-04-15T01:55:05;2.45;;;1.40;;
47715;SDS011;33476;50.984;3.538;2023-04-15T01:57:32;2.65;;;1.42;;
47715;SDS011;33476;50.984;3.538;2023-04-15T01:59:58;2.45;;;1.40;;
47715;SDS011;33476;50.984;3.538;2023-04-15T02:02:23;1.60;;;1.05;;
47715;SDS011;33476;50.984;3.538;2023-04-15T02:04:48;1.75;;;1.30;;
47715;SDS011;33476;50.984;3.538;2023-04-15T02:07:14;2.78;;;1.63;;
47715;SDS011;33476;50.984;3.538;2023-04-15T02:09:39;1.75;;;1.17;;
47715;SDS011;33476;50.984;3.538;2023-04-15T02:12:05;2.38;;;1.23;;
47715;SDS011;33476;50.984;3.538;2023-04-15T02:14:30;2.38;;;0.90;;
47715;SDS011;33476;50.984;3.538;2023-04-15T02:16:56;2.25;;;1.08;;
47715;SDS011;33476;50.984;3.538;2023-04-15T02:19:21;1.00;;;0.90;;
47715;SDS011;33476;50.984;3.538;2023-04-15T02:21:46;3.13;;;1.27;;
47715;SDS011;33476;50.984;3.538;2023-04-15T02:24:12;1.40;;;1.08;;
47715;SDS011;33476;50.984;3.538;2023-04-15T02:26:37;2.08;;;0.93;;
47715;SDS011;33476;50.984;3.538;2023-04-15T02:29:02;1.52;;;0.80;;
47715;SDS011;33476;50.984;3.538;2023-04-15T02:31:28;1.35;;;0.77;;
47715;SDS011;33476;50.984;3.538;2023-04-15T02:33:53;2.15;;;1.02;;
47715;SDS011;33476;50.984;3.538;2023-04-15T02:36:18;2.03;;;1.05;;
47715;SDS011;33476;50.984;3.538;2023-04-15T02:38:45;1.17;;;0.65;;
47715;SDS011;33476;50.984;3.538;2023-04-15T02:41:10;1.77;;;0.77;;
47715;SDS011;33476;50.984;3.538;2023-04-15T02:43:36;1.00;;;0.85;;
47715;SDS011;33476;50.984;3.538;2023-04-15T02:46:03;1.17;;;0.70;;
47715;SDS011;33476;50.984;3.538;2023-04-15T02:48:29;1.50;;;0.70;;
47715;SDS011;33476;50.984;3.538;2023-04-15T02:51:09;2.63;;;0.60;;
47715;SDS011;33476;50.984;3.538;2023-04-15T02:53:44;1.05;;;0.60;;
47715;SDS011;33476;50.984;3.538;2023-04-15T02:56:10;1.20;;;0.63;;
47715;SDS011;33476;50.984;3.538;2023-04-15T02:58:36;1.40;;;0.63;;
47715;SDS011;33476;50.984;3.538;2023-04-15T03:01:02;2.15;;;0.98;;
47715;SDS011;33476;50.984;3.538;2023-04-15T03:03:27;0.95;;;0.60;;
47715;SDS011;33476;50.984;3.538;2023-04-15T03:05:53;4.90;;;1.38;;
47715;SDS011;33476;50.984;3.538;2023-04-15T03:08:18;1.90;;;1.00;;
47715;SDS011;33476;50.984;3.538;2023-04-15T03:10:45;2.03;;;1.10;;
47715;SDS011;33476;50.984;3.538;2023-04-15T03:13:10;2.05;;;1.20;;
47715;SDS011;33476;50.984;3.538;2023-04-15T03:15:36;4.00;;;1.08;;
47715;SDS011;33476;50.984;3.538;2023-04-15T03:18:01;3.03;;;1.42;;
47715;SDS011;33476;50.984;3.538;2023-04-15T03:20:26;3.72;;;1.48;;
47715;SDS011;33476;50.984;3.538;2023-04-15T03:22:52;2.83;;;2.17;;
47715;SDS011;33476;50.984;3.538;2023-04-15T03:25:17;3.72;;;1.88;;
47715;SDS011;33476;50.984;3.538;2023-04-15T03:27:42;3.72;;;1.90;;
47715;SDS011;33476;50.984;3.538;2023-04-15T03:30:08;1.90;;;1.50;;
47715;SDS011;33476;50.984;3.538;2023-04-15T03:32:34;3.55;;;2.20;;
47715;SDS011;33476;50.984;3.538;2023-04-15T03:34:59;2.50;;;2.00;;
47715;SDS011;33476;50.984;3.538;2023-04-15T03:37:24;3.15;;;2.35;;
47715;SDS011;33476;50.984;3.538;2023-04-15T03:39:50;4.93;;;1.77;;
47715;SDS011;33476;50.984;3.538;2023-04-15T03:42:15;2.85;;;2.40;;
47715;SDS011;33476;50.984;3.538;2023-04-15T03:44:40;3.58;;;1.88;;
47715;SDS011;33476;50.984;3.538;2023-04-15T03:47:06;3.30;;;2.72;;
47715;SDS011;33476;50.984;3.538;2023-04-15T03:49:31;4.00;;;2.15;;
47715;SDS011;33476;50.984;3.538;2023-04-15T03:51:57;3.60;;;2.33;;
47715;SDS011;33476;50.984;3.538;2023-04-15T03:54:23;5.22;;;2.70;;
47715;SDS011;33476;50.984;3.538;2023-04-15T03:56:48;14.07;;;2.38;;
47715;SDS011;33476;50.984;3.538;2023-04-15T03:59:14;3.13;;;2.08;;
47715;SDS011;33476;50.984;3.538;2023-04-15T04:01:39;2.95;;;2.28;;
47715;SDS011;33476;50.984;3.538;2023-04-15T04:04:05;3.38;;;2.13;;
47715;SDS011;33476;50.984;3.538;2023-04-15T04:06:30;5.22;;;2.17;;
47715;SDS011;33476;50.984;3.538;2023-04-15T04:08:56;4.15;;;2.70;;
47715;SDS011;33476;50.984;3.538;2023-04-15T04:11:21;3.60;;;2.15;;
47715;SDS011;33476;50.984;3.538;2023-04-15T04:13:46;4.65;;;2.22;;
47715;SDS011;33476;50.984;3.538;2023-04-15T04:16:12;3.15;;;2.38;;
47715;SDS011;33476;50.984;3.538;2023-04-15T04:18:37;3.50;;;2.28;;
47715;SDS011;33476;50.984;3.538;2023-04-15T04:21:02;5.05;;;2.60;;
47715;SDS011;33476;50.984;3.538;2023-04-15T04:23:28;3.92;;;2.08;;
47715;SDS011;33476;50.984;3.538;2023-04-15T04:25:53;6.40;;;2.78;;
47715;SDS011;33476;50.984;3.538;2023-04-15T04:28:18;6.40;;;2.35;;
47715;SDS011;33476;50.984;3.538;2023-04-15T04:30:44;4.03;;;2.97;;
47715;SDS011;33476;50.984;3.538;2023-04-15T04:33:09;3.20;;;2.28;;
47715;SDS011;33476;50.984;3.538;2023-04-15T04:35:34;3.03;;;2.45;;
47715;SDS011;33476;50.984;3.538;2023-04-15T04:38:01;4.53;;;2.80;;
47715;SDS011;33476;50.984;3.538;2023-04-15T04:40:27;5.18;;;2.90;;
47715;SDS011;33476;50.984;3.538;2023-04-15T04:42:53;7.85;;;2.75;;
47715;SDS011;33476;50.984;3.538;2023-04-15T04:45:18;5.22;;;2.53;;
47715;SDS011;33476;50.984;3.538;2023-04-15T04:47:44;6.50;;;2.58;;
47715;SDS011;33476;50.984;3.538;2023-04-15T04:50:10;4.00;;;2.60;;
47715;SDS011;33476;50.984;3.538;2023-04-15T04:52:36;4.80;;;2.75;;
47715;SDS011;33476;50.984;3.538;2023-04-15T04:55:02;8.65;;;2.80;;
47715;SDS011;33476;50.984;3.538;2023-04-15T04:57:27;10.30;;;3.58;;
47715;SDS011;33476;50.984;3.538;2023-04-15T04:59:52;6.70;;;3.20;;
47715;SDS011;33476;50.984;3.538;2023-04-15T05:02:18;4.93;;;3.20;;
47715;SDS011;33476;50.984;3.538;2023-04-15T05:04:43;11.52;;;3.65;;
47715;SDS011;33476;50.984;3.538;2023-04-15T05:07:08;6.82;;;3.38;;
47715;SDS011;33476;50.984;3.538;2023-04-15T05:09:34;5.65;;;3.40;;
47715;SDS011;33476;50.984;3.538;2023-04-15T05:12:00;8.55;;;3.75;;
47715;SDS011;33476;50.984;3.538;2023-04-15T05:14:26;7.75;;;3.95;;
47715;SDS011;33476;50.984;3.538;2023-04-15T05:16:52;11.15;;;4.28;;
47715;SDS011;33476;50.984;3.538;2023-04-15T05:19:17;10.18;;;4.25;;
47715;SDS011;33476;50.984;3.538;2023-04-15T05:21:42;7.53;;;3.22;;
47715;SDS011;33476;50.984;3.538;2023-04-15T05:24:08;6.00;;;3.58;;
47715;SDS011;33476;50.984;3.538;2023-04-15T05:26:33;11.10;;;3.70;;
47715;SDS011;33476;50.984;3.538;2023-04-15T05:28:58;9.05;;;3.53;;
47715;SDS011;33476;50.984;3.538;2023-04-15T05:31:23;10.20;;;4.38;;
47715;SDS011;33476;50.984;3.538;2023-04-15T05:33:49;7.60;;;3.78;;
47715;SDS011;33476;50.984;3.538;2023-04-15T05:36:14;6.82;;;2.97;;
47715;SDS011;33476;50.984;3.538;2023-04-15T05:38:40;6.95;;;3.35;;
47715;SDS011;33476;50.984;3.538;2023-04-15T05:41:06;7.85;;;3.50;;
47715;SDS011;33476;50.984;3.538;2023-04-15T05:43:31;7.65;;;3.38;;
47715;SDS011;33476;50.984;3.538;2023-04-15T05:45:56;7.13;;;3.42;;
47715;SDS011;33476;50.984;3.538;2023-04-15T05:48:22;7.55;;;3.08;;
47715;SDS011;33476;50.984;3.538;2023-04-15T05:50:47;9.05;;;4.00;;
47715;SDS011;33476;50.984;3.538;2023-04-15T05:53:12;8.65;;;4.70;;
47715;SDS011;33476;50.984;3.538;2023-04-15T05:55:38;8.98;;;4.75;;
47715;SDS011;33476;50.984;3.538;2023-04-15T05:58:03;11.00;;;4.93;;
47715;SDS011;33476;50.984;3.538;2023-04-15T06:00:28;9.57;;;5.07;;
47715;SDS011;33476;50.984;3.538;2023-04-15T06:02:55;7.72;;;4.35;;
47715;SDS011;33476;50.984;3.538;2023-04-15T06:05:21;11.05;;;4.90;;
47715;SDS011;33476;50.984;3.538;2023-04-15T06:07:47;6.90;;;4.38;;
47715;SDS011;33476;50.984;3.538;2023-04-15T06:10:12;5.82;;;3.40;;
47715;SDS011;33476;50.984;3.538;2023-04-15T06:12:37;4.03;;;3.30;;
47715;SDS011;33476;50.984;3.538;2023-04-15T06:15:03;7.05;;;3.30;;
47715;SDS011;33476;50.984;3.538;2023-04-15T06:17:30;8.02;;;3.28;;
47715;SDS011;33476;50.984;3.538;2023-04-15T06:19:55;6.88;;;3.50;;
47715;SDS011;33476;50.984;3.538;2023-04-15T06:22:21;8.63;;;3.97;;
47715;SDS011;33476;50.984;3.538;2023-04-15T06:24:47;10.70;;;3.20;;
47715;SDS011;33476;50.984;3.538;2023-04-15T06:27:14;7.65;;;3.75;;
47715;SDS011;33476;50.984;3.538;2023-04-15T06:29:40;5.05;;;3.17;;
47715;SDS011;33476;50.984;3.538;2023-04-15T06:32:05;7.60;;;3.53;;
47715;SDS011;33476;50.984;3.538;2023-04-15T06:34:31;5.68;;;3.28;;
47715;SDS011;33476;50.984;3.538;2023-04-15T06:36:56;6.97;;;3.42;;
47715;SDS011;33476;50.984;3.538;2023-04-15T06:39:21;6.53;;;4.07;;
47715;SDS011;33476;50.984;3.538;2023-04-15T06:41:47;6.95;;;3.83;;
47715;SDS011;33476;50.984;3.538;2023-04-15T06:44:12;6.00;;;3.75;;
47715;SDS011;33476;50.984;3.538;2023-04-15T06:46:37;6.43;;;3.63;;
47715;SDS011;33476;50.984;3.538;2023-04-15T06:49:03;8.85;;;3.60;;
47715;SDS011;33476;50.984;3.538;2023-04-15T06:51:29;10.68;;;3.85;;
47715;SDS011;33476;50.984;3.538;2023-04-15T06:53:55;9.82;;;4.22;;
47715;SDS011;33476;50.984;3.538;2023-04-15T06:56:20;10.13;;;4.07;;
47715;SDS011;33476;50.984;3.538;2023-04-15T06:58:47;10.25;;;3.90;;
47715;SDS011;33476;50.984;3.538;2023-04-15T07:01:12;7.65;;;4.03;;
47715;SDS011;33476;50.984;3.538;2023-04-15T07:03:38;7.03;;;3.53;;
47715;SDS011;33476;50.984;3.538;2023-04-15T07:06:03;7.72;;;4.03;;
47715;SDS011;33476;50.984;3.538;2023-04-15T07:08:31;7.35;;;3.58;;
47715;SDS011;33476;50.984;3.538;2023-04-15T07:10:57;10.55;;;4.40;;
47715;SDS011;33476;50.984;3.538;2023-04-15T07:13:23;9.88;;;4.18;;
47715;SDS011;33476;50.984;3.538;2023-04-15T07:15:49;9.43;;;4.00;;
47715;SDS011;33476;50.984;3.538;2023-04-15T07:18:14;8.23;;;3.63;;
47715;SDS011;33476;50.984;3.538;2023-04-15T07:20:39;9.98;;;3.88;;
47715;SDS011;33476;50.984;3.538;2023-04-15T07:23:05;9.88;;;4.70;;
47715;SDS011;33476;50.984;3.538;2023-04-15T07:25:31;13.18;;;4.80;;
47715;SDS011;33476;50.984;3.538;2023-04-15T07:27:56;7.93;;;4.15;;
47715;SDS011;33476;50.984;3.538;2023-04-15T07:30:22;12.23;;;4.82;;
47715;SDS011;33476;50.984;3.538;2023-04-15T07:32:47;11.40;;;4.15;;
47715;SDS011;33476;50.984;3.538;2023-04-15T07:35:13;10.70;;;4.60;;
47715;SDS011;33476;50.984;3.538;2023-04-15T07:37:38;11.30;;;4.80;;
47715;SDS011;33476;50.984;3.538;2023-04-15T07:40:04;10.80;;;4.28;;
47715;SDS011;33476;50.984;3.538;2023-04-15T07:42:31;7.82;;;4.15;;
47715;SDS011;33476;50.984;3.538;2023-04-15T07:44:57;9.35;;;4.65;;
47715;SDS011;33476;50.984;3.538;2023-04-15T07:47:23;8.07;;;4.40;;
47715;SDS011;33476;50.984;3.538;2023-04-15T07:49:48;11.15;;;4.53;;
47715;SDS011;33476;50.984;3.538;2023-04-15T07:52:15;7.25;;;4.47;;
47715;SDS011;33476;50.984;3.538;2023-04-15T07:54:40;7.85;;;4.65;;
47715;SDS011;33476;50.984;3.538;2023-04-15T07:57:06;11.13;;;4.47;;
47715;SDS011;33476;50.984;3.538;2023-04-15T07:59:31;12.35;;;3.90;;
47715;SDS011;33476;50.984;3.538;2023-04-15T08:01:57;10.05;;;3.72;;
47715;SDS011;33476;50.984;3.538;2023-04-15T08:04:23;6.97;;;3.25;;
47715;SDS011;33476;50.984;3.538;2023-04-15T08:06:48;9.60;;;4.03;;
47715;SDS011;33476;50.984;3.538;2023-04-15T08:09:14;8.75;;;4.03;;
47715;SDS011;33476;50.984;3.538;2023-04-15T08:11:40;8.95;;;3.88;;
47715;SDS011;33476;50.984;3.538;2023-04-15T08:14:05;7.78;;;3.58;;
47715;SDS011;33476;50.984;3.538;2023-04-15T08:16:31;7.60;;;4.22;;
47715;SDS011;33476;50.984;3.538;2023-04-15T08:18:56;8.75;;;4.50;;
47715;SDS011;33476;50.984;3.538;2023-04-15T08:21:22;10.23;;;4.10;;
47715;SDS011;33476;50.984;3.538;2023-04-15T08:23:48;7.45;;;4.03;;
47715;SDS011;33476;50.984;3.538;2023-04-15T08:26:15;7.28;;;4.85;;
47715;SDS011;33476;50.984;3.538;2023-04-15T08:28:44;9.40;;;4.93;;
47715;SDS011;33476;50.984;3.538;2023-04-15T08:31:10;16.02;;;5.43;;
47715;SDS011;33476;50.984;3.538;2023-04-15T08:33:36;9.32;;;4.80;;
47715;SDS011;33476;50.984;3.538;2023-04-15T08:36:02;9.18;;;4.63;;
47715;SDS011;33476;50.984;3.538;2023-04-15T08:38:28;7.57;;;4.13;;
47715;SDS011;33476;50.984;3.538;2023-04-15T08:40:53;10.65;;;4.75;;
47715;SDS011;33476;50.984;3.538;2023-04-15T08:43:21;11.02;;;5.18;;
47715;SDS011;33476;50.984;3.538;2023-04-15T08:45:50;8.43;;;4.72;;
47715;SDS011;33476;50.984;3.538;2023-04-15T08:48:17;9.75;;;4.53;;
47715;SDS011;33476;50.984;3.538;2023-04-15T08:50:43;11.82;;;4.40;;
47715;SDS011;33476;50.984;3.538;2023-04-15T08:53:10;9.23;;;4.68;;
47715;SDS011;33476;50.984;3.538;2023-04-15T08:55:35;11.07;;;4.57;;
47715;SDS011;33476;50.984;3.538;2023-04-15T08:58:07;9.40;;;4.32;;
47715;SDS011;33476;50.984;3.538;2023-04-15T09:00:33;7.90;;;4.10;;
47715;SDS011;33476;50.984;3.538;2023-04-15T09:02:58;10.27;;;4.22;;
47715;SDS011;33476;50.984;3.538;2023-04-15T09:05:24;7.25;;;4.70;;
47715;SDS011;33476;50.984;3.538;2023-04-15T09:07:50;10.88;;;4.78;;
47715;SDS011;33476;50.984;3.538;2023-04-15T09:10:15;10.35;;;4.32;;
47715;SDS011;33476;50.984;3.538;2023-04-15T09:12:42;10.88;;;4.80;;
47715;SDS011;33476;50.984;3.538;2023-04-15T09:15:09;8.20;;;4.72;;
47715;SDS011;33476;50.984;3.538;2023-04-15T09:17:36;5.85;;;4.47;;
47715;SDS011;33476;50.984;3.538;2023-04-15T09:22:33;11.30;;;4.20;;
47715;SDS011;33476;50.984;3.538;2023-04-15T09:24:59;10.77;;;5.03;;
47715;SDS011;33476;50.984;3.538;2023-04-15T09:27:25;10.10;;;4.57;;
47715;SDS011;33476;50.984;3.538;2023-04-15T09:29:50;8.10;;;4.50;;
47715;SDS011;33476;50.984;3.538;2023-04-15T09:32:18;9.90;;;4.90;;
47715;SDS011;33476;50.984;3.538;2023-04-15T09:34:45;8.10;;;4.22;;
47715;SDS011;33476;50.984;3.538;2023-04-15T09:37:10;12.43;;;4.95;;
47715;SDS011;33476;50.984;3.538;2023-04-15T09:39:47;16.73;;;5.10;;
47715;SDS011;33476;50.984;3.538;2023-04-15T09:42:14;12.57;;;5.82;;
47715;SDS011;33476;50.984;3.538;2023-04-15T09:44:41;12.23;;;4.63;;
47715;SDS011;33476;50.984;3.538;2023-04-15T09:47:07;12.25;;;4.93;;
47715;SDS011;33476;50.984;3.538;2023-04-15T09:49:32;13.30;;;4.25;;
47715;SDS011;33476;50.984;3.538;2023-04-15T09:52:01;7.93;;;4.88;;
47715;SDS011;33476;50.984;3.538;2023-04-15T09:54:31;9.68;;;4.65;;
47715;SDS011;33476;50.984;3.538;2023-04-15T09:57:03;6.30;;;4.13;;
47715;SDS011;33476;50.984;3.538;2023-04-15T09:59:30;9.35;;;4.45;;
47715;SDS011;33476;50.984;3.538;2023-04-15T10:01:55;7.80;;;4.68;;
47715;SDS011;33476;50.984;3.538;2023-04-15T10:04:21;6.55;;;4.22;;
47715;SDS011;33476;50.984;3.538;2023-04-15T10:06:47;8.48;;;4.70;;
47715;SDS011;33476;50.984;3.538;2023-04-15T10:09:13;13.13;;;5.00;;
47715;SDS011;33476;50.984;3.538;2023-04-15T10:11:38;9.30;;;4.50;;
47715;SDS011;33476;50.984;3.538;2023-04-15T10:14:04;11.23;;;4.75;;
47715;SDS011;33476;50.984;3.538;2023-04-15T10:16:31;9.75;;;4.72;;
47715;SDS011;33476;50.984;3.538;2023-04-15T10:18:57;13.27;;;5.20;;
47715;SDS011;33476;50.984;3.538;2023-04-15T10:21:26;14.02;;;5.35;;
47715;SDS011;33476;50.984;3.538;2023-04-15T10:23:52;7.80;;;4.78;;
47715;SDS011;33476;50.984;3.538;2023-04-15T10:26:18;8.45;;;4.68;;
47715;SDS011;33476;50.984;3.538;2023-04-15T10:28:44;13.30;;;4.93;;
47715;SDS011;33476;50.984;3.538;2023-04-15T10:31:12;9.25;;;4.78;;
47715;SDS011;33476;50.984;3.538;2023-04-15T10:33:39;6.85;;;4.05;;
47715;SDS011;33476;50.984;3.538;2023-04-15T10:36:06;7.53;;;3.42;;
47715;SDS011;33476;50.984;3.538;2023-04-15T10:38:38;13.05;;;4.45;;
47715;SDS011;33476;50.984;3.538;2023-04-15T10:41:11;7.30;;;3.70;;
47715;SDS011;33476;50.984;3.538;2023-04-15T10:43:37;5.97;;;3.13;;
47715;SDS011;33476;50.984;3.538;2023-04-15T10:46:04;8.15;;;3.35;;
47715;SDS011;33476;50.984;3.538;2023-04-15T10:48:30;5.18;;;2.80;;
47715;SDS011;33476;50.984;3.538;2023-04-15T10:50:56;3.60;;;2.80;;
47715;SDS011;33476;50.984;3.538;2023-04-15T10:53:26;4.85;;;2.53;;
47715;SDS011;33476;50.984;3.538;2023-04-15T10:55:53;4.95;;;2.78;;
47715;SDS011;33476;50.984;3.538;2023-04-15T10:58:18;5.13;;;2.85;;
47715;SDS011;33476;50.984;3.538;2023-04-15T11:00:52;4.33;;;2.37;;
47715;SDS011;33476;50.984;3.538;2023-04-15T11:03:33;5.50;;;2.58;;
47715;SDS011;33476;50.984;3.538;2023-04-15T11:06:02;6.63;;;2.42;;
47715;SDS011;33476;50.984;3.538;2023-04-15T11:09:01;9.23;;;2.20;;
47715;SDS011;33476;50.984;3.538;2023-04-15T11:11:21;6.93;;;2.05;;
47715;SDS011;33476;50.984;3.538;2023-04-15T11:13:47;6.15;;;2.45;;
47715;SDS011;33476;50.984;3.538;2023-04-15T11:16:14;3.97;;;1.85;;
47715;SDS011;33476;50.984;3.538;2023-04-15T11:18:40;6.25;;;2.55;;
47715;SDS011;33476;50.984;3.538;2023-04-15T11:21:06;6.63;;;2.17;;
47715;SDS011;33476;50.984;3.538;2023-04-15T11:23:37;4.38;;;1.60;;
47715;SDS011;33476;50.984;3.538;2023-04-15T11:26:11;1.30;;;0.70;;
47715;SDS011;33476;50.984;3.538;2023-04-15T11:28:38;3.67;;;1.08;;
47715;SDS011;33476;50.984;3.538;2023-04-15T11:31:15;4.43;;;0.90;;
47715;SDS011;33476;50.984;3.538;2023-04-15T11:33:58;4.72;;;0.93;;
47715;SDS011;33476;50.984;3.538;2023-04-15T11:36:26;4.53;;;1.10;;
47715;SDS011;33476;50.984;3.538;2023-04-15T11:38:52;1.70;;;0.70;;
47715;SDS011;33476;50.984;3.538;2023-04-15T11:41:21;2.67;;;0.90;;
47715;SDS011;33476;50.984;3.538;2023-04-15T11:43:47;1.63;;;0.50;;
47715;SDS011;33476;50.984;3.538;2023-04-15T11:46:13;5.32;;;1.33;;
47715;SDS011;33476;50.984;3.538;2023-04-15T11:48:41;1.95;;;0.70;;
47715;SDS011;33476;50.984;3.538;2023-04-15T11:51:08;4.70;;;0.70;;
47715;SDS011;33476;50.984;3.538;2023-04-15T11:53:41;1.90;;;1.13;;
47715;SDS011;33476;50.984;3.538;2023-04-15T11:56:17;4.10;;;1.27;;
47715;SDS011;33476;50.984;3.538;2023-04-15T11:58:46;2.83;;;1.17;;
47715;SDS011;33476;50.984;3.538;2023-04-15T12:01:12;1.80;;;0.75;;
47715;SDS011;33476;50.984;3.538;2023-04-15T12:03:39;1.67;;;0.95;;
47715;SDS011;33476;50.984;3.538;2023-04-15T12:06:22;2.13;;;1.40;;
47715;SDS011;33476;50.984;3.538;2023-04-15T12:13:53;5.05;;;2.03;;
47715;SDS011;33476;50.984;3.538;2023-04-15T12:16:21;3.80;;;1.25;;
47715;SDS011;33476;50.984;3.538;2023-04-15T12:18:49;2.63;;;1.65;;
47715;SDS011;33476;50.984;3.538;2023-04-15T12:21:17;1.60;;;1.13;;
47715;SDS011;33476;50.984;3.538;2023-04-15T12:23:48;2.00;;;1.10;;
47715;SDS011;33476;50.984;3.538;2023-04-15T12:26:14;1.80;;;1.40;;
47715;SDS011;33476;50.984;3.538;2023-04-15T12:28:40;2.42;;;1.38;;
47715;SDS011;33476;50.984;3.538;2023-04-15T12:31:09;2.38;;;1.10;;
47715;SDS011;33476;50.984;3.538;2023-04-15T12:33:35;3.13;;;0.82;;
47715;SDS011;33476;50.984;3.538;2023-04-15T12:36:01;1.83;;;1.10;;
47715;SDS011;33476;50.984;3.538;2023-04-15T12:38:27;3.88;;;0.82;;
47715;SDS011;33476;50.984;3.538;2023-04-15T12:40:52;1.40;;;0.70;;
47715;SDS011;33476;50.984;3.538;2023-04-15T12:43:18;2.15;;;0.90;;
47715;SDS011;33476;50.984;3.538;2023-04-15T12:45:43;3.75;;;0.88;;
47715;SDS011;33476;50.984;3.538;2023-04-15T12:48:08;1.67;;;0.80;;
47715;SDS011;33476;50.984;3.538;2023-04-15T12:50:34;1.95;;;0.60;;
47715;SDS011;33476;50.984;3.538;2023-04-15T12:53:00;1.67;;;0.50;;
47715;SDS011;33476;50.984;3.538;2023-04-15T12:55:25;2.40;;;0.70;;
47715;SDS011;33476;50.984;3.538;2023-04-15T12:57:51;2.35;;;0.70;;
47715;SDS011;33476;50.984;3.538;2023-04-15T13:00:16;1.83;;;0.80;;
47715;SDS011;33476;50.984;3.538;2023-04-15T13:02:42;2.50;;;0.75;;
47715;SDS011;33476;50.984;3.538;2023-04-15T13:05:08;2.85;;;1.10;;
47715;SDS011;33476;50.984;3.538;2023-04-15T13:07:34;2.72;;;1.40;;
47715;SDS011;33476;50.984;3.538;2023-04-15T13:09:59;3.10;;;1.65;;
47715;SDS011;33476;50.984;3.538;2023-04-15T13:12:25;3.90;;;1.67;;
47715;SDS011;33476;50.984;3.538;2023-04-15T13:14:51;1.75;;;1.15;;
47715;SDS011;33476;50.984;3.538;2023-04-15T13:17:17;4.32;;;1.52;;
47715;SDS011;33476;50.984;3.538;2023-04-15T13:19:44;4.25;;;1.30;;
47715;SDS011;33476;50.984;3.538;2023-04-15T13:22:10;4.38;;;1.67;;
47715;SDS011;33476;50.984;3.538;2023-04-15T13:24:36;3.40;;;1.60;;
47715;SDS011;33476;50.984;3.538;2023-04-15T13:27:01;2.65;;;1.35;;
47715;SDS011;33476;50.984;3.538;2023-04-15T13:29:28;2.20;;;1.52;;
47715;SDS011;33476;50.984;3.538;2023-04-15T13:31:53;2.28;;;1.20;;
47715;SDS011;33476;50.984;3.538;2023-04-15T13:34:18;2.88;;;1.45;;
47715;SDS011;33476;50.984;3.538;2023-04-15T13:36:44;4.13;;;1.92;;
47715;SDS011;33476;50.984;3.538;2023-04-15T13:39:10;2.85;;;1.45;;
47715;SDS011;33476;50.984;3.538;2023-04-15T13:41:35;4.22;;;1.23;;
47715;SDS011;33476;50.984;3.538;2023-04-15T13:44:01;3.25;;;1.50;;
47715;SDS011;33476;50.984;3.538;2023-04-15T13:46:26;2.67;;;1.40;;
47715;SDS011;33476;50.984;3.538;2023-04-15T13:48:52;3.72;;;1.45;;
47715;SDS011;33476;50.984;3.538;2023-04-15T13:51:17;7.63;;;2.05;;
47715;SDS011;33476;50.984;3.538;2023-04-15T13:53:42;242.50;;;18.40;;
47715;SDS011;33476;50.984;3.538;2023-04-15T13:56:08;49.03;;;6.70;;
47715;SDS011;33476;50.984;3.538;2023-04-15T13:58:34;13.82;;;3.70;;
47715;SDS011;33476;50.984;3.538;2023-04-15T14:01:01;5.65;;;2.70;;
47715;SDS011;33476;50.984;3.538;2023-04-15T14:03:27;5.60;;;2.58;;
47715;SDS011;33476;50.984;3.538;2023-04-15T14:05:52;4.93;;;2.05;;
47715;SDS011;33476;50.984;3.538;2023-04-15T14:08:20;4.60;;;2.03;;
47715;SDS011;33476;50.984;3.538;2023-04-15T14:10:46;4.95;;;2.45;;
47715;SDS011;33476;50.984;3.538;2023-04-15T14:13:13;5.65;;;2.67;;
47715;SDS011;33476;50.984;3.538;2023-04-15T14:15:39;6.38;;;2.35;;
47715;SDS011;33476;50.984;3.538;2023-04-15T14:18:05;8.75;;;2.05;;
47715;SDS011;33476;50.984;3.538;2023-04-15T14:20:31;7.45;;;1.83;;
47715;SDS011;33476;50.984;3.538;2023-04-15T14:22:56;3.63;;;1.92;;
47715;SDS011;33476;50.984;3.538;2023-04-15T14:25:21;4.68;;;2.67;;
47715;SDS011;33476;50.984;3.538;2023-04-15T14:27:47;6.15;;;2.80;;
47715;SDS011;33476;50.984;3.538;2023-04-15T14:30:12;5.20;;;3.00;;
47715;SDS011;33476;50.984;3.538;2023-04-15T14:32:38;5.07;;;2.58;;
47715;SDS011;33476;50.984;3.538;2023-04-15T14:35:03;6.80;;;2.60;;
47715;SDS011;33476;50.984;3.538;2023-04-15T14:37:29;6.40;;;2.78;;
47715;SDS011;33476;50.984;3.538;2023-04-15T14:39:54;7.10;;;3.05;;
47715;SDS011;33476;50.984;3.538;2023-04-15T14:42:20;3.63;;;2.53;;
47715;SDS011;33476;50.984;3.538;2023-04-15T14:44:45;5.05;;;2.58;;
47715;SDS011;33476;50.984;3.538;2023-04-15T14:47:10;4.63;;;2.10;;